Time;durP1;ratioP1;P1;durP2;ratioP2;P2;SDS_P1;SDS_P2;PMS_P1;PMS_P2;Temp;Humidity;BMP_temperature;BMP_pressure;BME280_temperature;BME280_humidity;BME280_pressure;Samples;Min_cycle;Max_cycle;Signal;HPM_P1;HPM_P2
2023/06/20 00:02:04;;;;;;;11.60;10.70;;;20.30;99.90;;;;;;5029718;28;20468;-70
2023/06/20 00:04:32;;;;;;;10.23;9.43;;;20.40;99.90;;;;;;5032993;28;20946;-70
2023/06/20 00:07:01;;;;;;;15.10;14.07;;;20.40;99.90;;;;;;5049994;28;20479;-70
2023/06/20 00:09:29;;;;;;;11.37;10.43;;;20.50;99.90;;;;;;5049911;28;20483;-70
2023/06/20 00:11:57;;;;;;;10.37;9.57;;;20.50;99.90;;;;;;5049556;28;20890;-70
2023/06/20 00:14:27;;;;;;;11.27;10.27;;;20.40;99.90;;;;;;5048739;28;20440;-70
2023/06/20 00:16:58;;;;;;;12.30;11.40;;;20.40;99.90;;;;;;5049502;28;20436;-70
2023/06/20 00:19:26;;;;;;;10.87;9.97;;;20.50;99.90;;;;;;5049669;28;20934;-70
2023/06/20 00:21:54;;;;;;;11.07;10.20;;;20.60;99.90;;;;;;5049869;28;21037;-70
2023/06/20 00:24:24;;;;;;;10.43;9.60;;;20.70;99.90;;;;;;5048357;28;20490;-70
2023/06/20 00:26:52;;;;;;;10.00;9.20;;;20.90;99.90;;;;;;5049045;28;20444;-70
2023/06/20 00:29:20;;;;;;;11.77;10.57;;;20.80;99.90;;;;;;5048781;28;20925;-70
2023/06/20 00:31:48;;;;;;;11.60;10.70;;;20.90;99.90;;;;;;5032976;28;20513;-70
2023/06/20 00:34:16;;;;;;;11.13;10.07;;;21.00;99.90;;;;;;5028034;28;20536;-69
2023/06/20 00:36:44;;;;;;;11.60;10.43;;;21.00;99.90;;;;;;5029090;28;20523;-70
2023/06/20 00:39:12;;;;;;;11.07;10.17;;;21.10;99.90;;;;;;5029685;28;20451;-70
2023/06/20 00:41:41;;;;;;;13.20;12.10;;;21.20;99.90;;;;;;5028822;28;21017;-70
2023/06/20 00:44:09;;;;;;;10.50;9.70;;;21.20;99.90;;;;;;5028563;28;20524;-71
2023/06/20 00:46:39;;;;;;;10.57;9.67;;;21.30;99.90;;;;;;5029252;28;20983;-70
2023/06/20 00:49:08;;;;;;;9.50;8.60;;;21.20;99.90;;;;;;5029068;28;20513;-70
2023/06/20 00:51:37;;;;;;;11.30;8.73;;;21.30;99.90;;;;;;5029293;28;20489;-68
2023/06/20 00:54:06;;;;;;;12.57;11.47;;;21.30;99.90;;;;;;5027916;28;20947;-71
2023/06/20 00:56:34;;;;;;;41.00;19.90;;;21.30;99.90;;;;;;5029249;28;20444;-69
2023/06/20 00:59:04;;;;;;;24.23;21.90;;;21.00;99.90;;;;;;5029170;28;20448;-70
2023/06/20 01:01:32;;;;;;;11.13;10.10;;;20.80;99.90;;;;;;5029240;28;21062;-69
2023/06/20 01:04:01;;;;;;;10.70;9.57;;;20.60;99.90;;;;;;5028211;28;20445;-70
2023/06/20 01:06:36;;;;;;;11.27;10.30;;;20.40;99.90;;;;;;5029374;28;20449;-70
2023/06/20 01:09:13;;;;;;;11.57;10.63;;;20.20;99.90;;;;;;5029606;28;20437;-70
2023/06/20 01:11:50;;;;;;;10.20;9.20;;;20.10;99.90;;;;;;5029185;28;20543;-70
2023/06/20 01:14:30;;;;;;;11.20;10.30;;;20.00;99.90;;;;;;5028116;28;20972;-71
2023/06/20 01:17:01;;;;;;;10.93;9.93;;;19.80;99.90;;;;;;5029611;28;20935;-71
2023/06/20 01:19:54;;;;;;;10.83;9.87;;;19.70;99.90;;;;;;5029423;28;20532;-71
2023/06/20 01:22:50;;;;;;;10.43;9.53;;;19.70;99.90;;;;;;5028674;28;20496;-70
2023/06/20 01:25:30;;;;;;;11.37;10.37;;;19.60;99.90;;;;;;5029888;28;20479;-72
2023/06/20 01:28:07;;;;;;;11.03;10.03;;;19.60;99.90;;;;;;5029695;28;20449;-72
2023/06/20 01:30:42;;;;;;;12.43;11.23;;;19.50;99.90;;;;;;5029620;28;20484;-70
2023/06/20 01:33:12;;;;;;;11.37;10.37;;;19.40;99.90;;;;;;5028640;28;20930;-71
2023/06/20 01:35:42;;;;;;;11.03;10.03;;;19.40;99.90;;;;;;5029438;28;20445;-71
2023/06/20 01:38:14;;;;;;;11.43;9.00;;;19.40;99.90;;;;;;5029089;28;20539;-72
2023/06/20 01:40:48;;;;;;;10.43;9.53;;;19.30;99.90;;;;;;5029926;28;20444;-71
2023/06/20 01:43:17;;;;;;;11.10;10.10;;;19.30;99.90;;;;;;5028742;28;20461;-71
2023/06/20 01:45:47;;;;;;;11.00;10.10;;;19.30;99.90;;;;;;5030257;28;20516;-71
2023/06/20 01:48:17;;;;;;;15.57;12.23;;;19.20;99.90;;;;;;5032518;28;20449;-70
2023/06/20 01:50:47;;;;;;;12.20;11.20;;;19.20;99.90;;;;;;5032403;28;20714;-70
2023/06/20 01:53:18;;;;;;;13.00;11.73;;;19.20;99.90;;;;;;5031286;28;21012;-71
2023/06/20 01:55:48;;;;;;;12.67;11.17;;;19.20;99.90;;;;;;5032857;28;20487;-71
2023/06/20 01:58:18;;;;;;;9.40;8.50;;;19.20;99.90;;;;;;5032417;28;20471;-71
2023/06/20 02:00:46;;;;;;;10.30;9.40;;;19.20;99.90;;;;;;5032515;28;20437;-70
2023/06/20 02:03:16;;;;;;;9.53;8.73;;;19.20;99.90;;;;;;5031362;28;20479;-71
2023/06/20 02:05:46;;;;;;;10.80;9.83;;;19.10;99.90;;;;;;5031975;28;20528;-71
2023/06/20 02:08:15;;;;;;;10.77;9.33;;;19.10;99.90;;;;;;5032499;28;20502;-71
2023/06/20 02:10:45;;;;;;;8.97;8.07;;;19.20;99.90;;;;;;5032121;28;20515;-71
2023/06/20 02:13:14;;;;;;;9.40;8.50;;;19.10;99.90;;;;;;5030393;28;21017;-71
2023/06/20 02:15:42;;;;;;;9.27;8.30;;;19.10;99.90;;;;;;5032335;28;20528;-70
2023/06/20 02:18:11;;;;;;;8.10;7.40;;;19.00;99.90;;;;;;5031587;28;20477;-71
2023/06/20 02:20:39;;;;;;;7.37;6.77;;;19.10;99.90;;;;;;5032097;28;20528;-70
2023/06/20 02:23:07;;;;;;;8.70;7.90;;;19.00;99.90;;;;;;5030585;28;20461;-70
2023/06/20 02:25:38;;;;;;;8.87;8.00;;;19.00;99.90;;;;;;5031788;28;20445;-70
2023/06/20 02:28:09;;;;;;;8.43;7.63;;;19.10;99.90;;;;;;5048895;28;20958;-70
2023/06/20 02:30:39;;;;;;;8.70;8.00;;;19.10;99.90;;;;;;5051943;28;20515;-71
2023/06/20 02:33:12;;;;;;;8.73;7.80;;;19.00;99.90;;;;;;5050688;28;20829;-71
2023/06/20 02:35:42;;;;;;;6.87;6.27;;;19.00;99.90;;;;;;5051513;28;20454;-71
2023/06/20 02:38:11;;;;;;;8.53;7.83;;;18.90;99.90;;;;;;5051521;28;20467;-71
2023/06/20 02:40:39;;;;;;;10.40;9.40;;;18.90;99.90;;;;;;5051218;28;20879;-71
2023/06/20 02:43:09;;;;;;;10.03;9.13;;;18.90;99.90;;;;;;5031429;28;20536;-71
2023/06/20 02:45:37;;;;;;;9.40;8.60;;;18.80;99.90;;;;;;5031142;28;20445;-71
2023/06/20 02:48:25;;;;;;;8.73;8.03;;;18.70;99.90;;;;;;5031042;28;20442;-71
2023/06/20 02:51:02;;;;;;;10.07;9.07;;;18.70;99.90;;;;;;5031047;28;20476;-72
2023/06/20 02:53:39;;;;;;;10.03;9.23;;;18.60;99.90;;;;;;5029538;28;20456;-72
2023/06/20 02:56:12;;;;;;;10.87;9.83;;;18.60;99.90;;;;;;5031444;28;20444;-72
2023/06/20 02:58:45;;;;;;;10.07;9.27;;;18.50;99.90;;;;;;5030386;28;20540;-72
2023/06/20 03:01:20;;;;;;;11.40;10.30;;;18.40;99.90;;;;;;5031484;28;20552;-71
2023/06/20 03:03:51;;;;;;;10.10;9.30;;;18.40;99.90;;;;;;5029866;28;20821;-71
2023/06/20 03:06:27;;;;;;;10.30;9.50;;;18.40;99.90;;;;;;5030672;28;20437;-71
2023/06/20 03:08:57;;;;;;;11.30;10.30;;;18.30;99.90;;;;;;5030918;28;20448;-72
2023/06/20 03:11:25;;;;;;;10.93;9.50;;;18.30;99.90;;;;;;5030790;28;20488;-71
2023/06/20 03:13:55;;;;;;;10.90;10.00;;;18.40;99.90;;;;;;5030024;28;20856;-71
2023/06/20 03:16:26;;;;;;;12.07;10.97;;;18.40;99.90;;;;;;5030467;28;20809;-71
2023/06/20 03:18:54;;;;;;;11.37;10.30;;;18.40;99.90;;;;;;5031051;28;20444;-71
2023/06/20 03:21:25;;;;;;;12.07;9.90;;;18.20;99.90;;;;;;5034404;28;20453;-71
2023/06/20 03:23:56;;;;;;;10.07;9.07;;;18.10;99.90;;;;;;5049099;28;20864;-71
2023/06/20 03:26:25;;;;;;;10.23;9.33;;;18.10;99.90;;;;;;5050446;28;20992;-71
2023/06/20 03:28:54;;;;;;;11.27;10.27;;;18.10;99.90;;;;;;5050523;28;20822;-71
2023/06/20 03:31:22;;;;;;;11.63;10.03;;;18.10;99.90;;;;;;5050500;28;20488;-71
2023/06/20 03:33:50;;;;;;;11.37;10.37;;;18.10;99.90;;;;;;5048938;28;20839;-71
2023/06/20 03:36:18;;;;;;;11.00;10.00;;;18.10;99.90;;;;;;5050589;28;20515;-71
2023/06/20 03:38:46;;;;;;;11.00;10.00;;;18.10;99.90;;;;;;5050649;28;20448;-71
2023/06/20 03:41:14;;;;;;;12.47;11.27;;;18.10;99.90;;;;;;5050659;28;20468;-71
2023/06/20 03:43:42;;;;;;;10.50;9.60;;;18.10;99.90;;;;;;5049378;28;20444;-71
2023/06/20 03:46:12;;;;;;;12.13;10.57;;;18.20;99.90;;;;;;5050260;28;20440;-71
2023/06/20 03:48:40;;;;;;;12.70;11.50;;;18.20;99.90;;;;;;5050119;28;20447;-70
2023/06/20 03:51:08;;;;;;;11.20;10.10;;;18.20;99.90;;;;;;5050277;28;20570;-71
2023/06/20 03:53:36;;;;;;;9.90;9.03;;;18.20;99.90;;;;;;5047649;28;20452;-70
2023/06/20 03:56:04;;;;;;;11.30;10.20;;;18.20;99.90;;;;;;5049367;28;20487;-71
2023/06/20 03:58:32;;;;;;;12.80;11.67;;;18.20;99.90;;;;;;5049509;28;20440;-71
2023/06/20 04:01:00;;;;;;;10.00;9.10;;;18.10;99.90;;;;;;5049620;28;20489;-71
2023/06/20 04:03:30;;;;;;;11.40;10.40;;;18.10;99.90;;;;;;5048336;28;21103;-71
2023/06/20 04:06:01;;;;;;;10.83;9.83;;;18.10;99.90;;;;;;5049360;28;20784;-70
2023/06/20 04:08:29;;;;;;;13.93;12.30;;;18.10;99.90;;;;;;5049304;28;20951;-69
2023/06/20 04:10:58;;;;;;;13.90;12.70;;;18.10;99.90;;;;;;5049016;28;20440;-69
2023/06/20 04:13:27;;;;;;;12.30;11.20;;;18.10;99.90;;;;;;5048434;28;20443;-69
2023/06/20 04:15:55;;;;;;;11.60;10.70;;;18.10;99.90;;;;;;5048878;28;20440;-69
2023/06/20 04:18:23;;;;;;;12.70;11.50;;;18.10;99.90;;;;;;5049108;28;20444;-69
2023/06/20 04:20:53;;;;;;;12.47;11.37;;;18.20;99.90;;;;;;5049049;28;20441;-69
2023/06/20 04:23:21;;;;;;;12.90;11.60;;;18.20;99.90;;;;;;5047853;28;21028;-69
2023/06/20 04:25:49;;;;;;;11.53;10.53;;;18.30;99.90;;;;;;5049841;28;20448;-69
2023/06/20 04:28:17;;;;;;;12.30;11.30;;;18.40;99.90;;;;;;5049351;28;20444;-69
2023/06/20 04:30:45;;;;;;;11.80;10.60;;;18.50;99.90;;;;;;5049933;28;20451;-68
2023/06/20 04:33:13;;;;;;;11.37;10.37;;;18.50;99.90;;;;;;5047933;28;20482;-68
2023/06/20 04:35:42;;;;;;;10.47;9.57;;;18.60;99.90;;;;;;5049606;28;20519;-69
2023/06/20 04:38:12;;;;;;;9.73;8.83;;;18.70;99.90;;;;;;5048837;28;20455;-70
2023/06/20 04:40:41;;;;;;;9.50;8.70;;;18.80;99.90;;;;;;5051420;28;20460;-69
2023/06/20 04:43:09;;;;;;;8.90;8.10;;;18.80;99.90;;;;;;5048284;28;21015;-69
2023/06/20 04:45:38;;;;;;;8.63;7.90;;;18.80;99.90;;;;;;5049288;28;20538;-69
2023/06/20 04:48:06;;;;;;;9.00;8.10;;;18.90;99.90;;;;;;5049465;28;20454;-68
2023/06/20 04:50:35;;;;;;;9.20;8.30;;;18.90;99.90;;;;;;5049090;28;20448;-70
2023/06/20 04:53:03;;;;;;;9.17;8.23;;;18.90;99.90;;;;;;5047499;28;20484;-69
2023/06/20 04:55:32;;;;;;;9.60;8.70;;;18.90;99.90;;;;;;5049295;28;20436;-69
2023/06/20 04:58:00;;;;;;;8.60;7.90;;;19.00;99.90;;;;;;5049265;28;20436;-69
2023/06/20 05:00:28;;;;;;;9.07;8.27;;;19.10;99.90;;;;;;5049291;28;20872;-69
2023/06/20 05:02:58;;;;;;;9.20;7.43;;;19.10;99.90;;;;;;5046655;28;20582;-68
2023/06/20 05:05:29;;;;;;;9.43;8.53;;;19.10;99.90;;;;;;5047910;28;20813;-68
2023/06/20 05:07:57;;;;;;;9.63;8.77;;;19.30;99.90;;;;;;5048789;28;20790;-69
2023/06/20 05:10:26;;;;;;;9.17;8.27;;;19.40;99.90;;;;;;5049380;28;20460;-67
2023/06/20 05:12:55;;;;;;;8.47;7.67;;;19.40;99.90;;;;;;5047959;28;20480;-68
2023/06/20 05:15:24;;;;;;;8.27;7.40;;;19.50;99.90;;;;;;5048863;28;20439;-67
2023/06/20 05:17:53;;;;;;;8.77;7.40;;;19.60;99.90;;;;;;5049451;28;20440;-67
2023/06/20 05:20:21;;;;;;;12.20;8.13;;;19.70;99.90;;;;;;5042842;28;20487;-67
2023/06/20 05:22:50;;;;;;;9.27;8.13;;;19.70;99.90;;;;;;5061829;28;20450;-68
2023/06/20 05:25:18;;;;;;;8.40;7.70;;;19.80;99.90;;;;;;5064307;28;20453;-68
2023/06/20 05:27:47;;;;;;;8.30;7.50;;;19.80;99.90;;;;;;5072989;28;20444;-68
2023/06/20 05:30:16;;;;;;;9.63;8.30;;;19.90;99.90;;;;;;5073131;28;20488;-68
2023/06/20 05:32:44;;;;;;;9.23;7.97;;;20.00;99.90;;;;;;5070870;28;20482;-68
2023/06/20 05:35:13;;;;;;;7.67;6.87;;;20.00;99.90;;;;;;5072630;28;20633;-68
2023/06/20 05:37:44;;;;;;;7.67;6.87;;;20.10;99.90;;;;;;5072771;28;20447;-68
2023/06/20 05:40:15;;;;;;;7.13;6.53;;;20.20;99.90;;;;;;5073121;28;20445;-67
2023/06/20 05:42:43;;;;;;;6.93;6.33;;;20.30;99.90;;;;;;5071847;28;20546;-69
2023/06/20 05:45:12;;;;;;;7.20;6.47;;;20.50;99.90;;;;;;5066112;28;20443;-70
2023/06/20 05:47:44;;;;;;;6.30;5.90;;;20.50;99.90;;;;;;5051150;28;20540;-67
2023/06/20 05:50:12;;;;;;;6.23;5.63;;;20.50;99.90;;;;;;5051315;28;20461;-67
2023/06/20 05:52:40;;;;;;;7.40;6.80;;;20.50;99.90;;;;;;5048899;28;20475;-67
2023/06/20 05:55:09;;;;;;;6.93;6.30;;;20.60;99.90;;;;;;5035471;28;20494;-68
2023/06/20 05:57:38;;;;;;;6.07;5.50;;;20.70;99.90;;;;;;5032627;28;20919;-67
2023/06/20 06:00:12;;;;;;;6.20;5.53;;;20.80;99.90;;;;;;5031868;28;20452;-67
2023/06/20 06:02:44;;;;;;;6.93;6.20;;;21.00;99.90;;;;;;5030310;28;20858;-68
2023/06/20 06:05:13;;;;;;;9.43;5.63;;;21.10;99.90;;;;;;5031936;28;20452;-67
2023/06/20 06:07:41;;;;;;;7.87;5.30;;;21.20;99.90;;;;;;5031709;28;20448;-67
2023/06/20 06:10:11;;;;;;;7.47;5.87;;;21.20;99.90;;;;;;5031491;28;21151;-68
2023/06/20 06:12:40;;;;;;;6.37;5.77;;;21.20;99.90;;;;;;5030163;28;21000;-68
2023/06/20 06:15:09;;;;;;;6.43;5.83;;;21.30;99.90;;;;;;5031313;28;20515;-68
2023/06/20 06:17:38;;;;;;;7.33;5.67;;;21.40;99.90;;;;;;5031305;28;20978;-69
2023/06/20 06:20:11;;;;;;;6.60;6.00;;;21.50;99.90;;;;;;5031415;28;20445;-69
2023/06/20 06:22:40;;;;;;;6.20;5.67;;;21.60;99.90;;;;;;5029334;28;20471;-69
2023/06/20 06:25:09;;;;;;;6.50;5.77;;;21.70;99.90;;;;;;5034123;28;20920;-68
2023/06/20 06:27:37;;;;;;;7.80;5.73;;;21.90;99.90;;;;;;5042032;28;20459;-68
2023/06/20 06:30:08;;;;;;;5.97;5.47;;;22.00;99.90;;;;;;5031228;28;20441;-69
2023/06/20 06:32:37;;;;;;;6.27;5.70;;;22.10;99.90;;;;;;5045131;28;20868;-69
2023/06/20 06:35:10;;;;;;;6.20;5.70;;;22.10;99.90;;;;;;5050891;28;20436;-69
2023/06/20 06:37:40;;;;;;;16.33;8.40;;;22.20;99.90;;;;;;5050819;28;20527;-70
2023/06/20 06:40:10;;;;;;;22.00;8.37;;;22.20;99.90;;;;;;5050677;28;20447;-69
2023/06/20 06:42:38;;;;;;;11.10;7.83;;;22.30;99.90;;;;;;5049414;28;20460;-68
2023/06/20 06:45:08;;;;;;;7.83;6.30;;;22.40;99.90;;;;;;5050768;28;21024;-69
2023/06/20 06:47:36;;;;;;;8.17;5.73;;;22.60;99.90;;;;;;5050521;28;20448;-68
2023/06/20 06:50:07;;;;;;;7.23;5.77;;;22.80;99.00;;;;;;5050849;28;20452;-68
2023/06/20 06:52:35;;;;;;;6.57;5.97;;;22.80;98.30;;;;;;5049056;28;21144;-68
2023/06/20 06:55:04;;;;;;;6.30;5.57;;;22.90;98.70;;;;;;5050629;28;20452;-68
2023/06/20 06:57:32;;;;;;;6.53;5.77;;;23.00;97.90;;;;;;5050421;28;20526;-69
2023/06/20 07:00:00;;;;;;;7.37;6.50;;;23.10;97.60;;;;;;5050546;28;20531;-69
2023/06/20 07:02:28;;;;;;;7.80;6.77;;;23.20;97.10;;;;;;5049659;28;20468;-69
2023/06/20 07:04:56;;;;;;;8.27;6.47;;;23.10;97.20;;;;;;5051123;28;20436;-68
2023/06/20 07:07:26;;;;;;;7.90;5.87;;;23.20;96.20;;;;;;5051690;28;20444;-70
2023/06/20 07:09:54;;;;;;;6.40;5.80;;;23.40;95.40;;;;;;5051339;28;21299;-70
2023/06/20 07:12:22;;;;;;;6.63;6.00;;;23.40;95.50;;;;;;5050515;28;20522;-70
2023/06/20 07:14:56;;;;;;;6.50;5.80;;;23.50;94.40;;;;;;5033950;28;21011;-70
2023/06/20 07:17:24;;;;;;;6.37;5.70;;;23.60;95.30;;;;;;5031278;28;20907;-70
2023/06/20 07:19:53;;;;;;;7.27;6.50;;;23.70;94.40;;;;;;5031198;28;20445;-71
2023/06/20 07:22:22;;;;;;;7.40;6.67;;;23.80;95.10;;;;;;5030697;28;20472;-71
2023/06/20 07:24:51;;;;;;;8.10;6.57;;;23.90;93.90;;;;;;5030913;28;20445;-71
2023/06/20 07:27:24;;;;;;;7.43;6.73;;;24.10;93.70;;;;;;5031123;28;20425;-70
2023/06/20 07:29:52;;;;;;;7.77;6.77;;;24.30;94.00;;;;;;5030926;28;20919;-71
2023/06/20 07:32:20;;;;;;;10.80;6.10;;;24.40;92.50;;;;;;5030471;28;20472;-71
2023/06/20 07:34:49;;;;;;;7.43;6.83;;;24.60;93.10;;;;;;5030800;28;20885;-71
2023/06/20 07:37:17;;;;;;;7.93;6.60;;;24.60;90.90;;;;;;5031295;28;20447;-71
2023/06/20 07:39:46;;;;;;;7.67;6.10;;;24.80;91.40;;;;;;5031168;28;21209;-71
2023/06/20 07:42:16;;;;;;;7.30;6.60;;;25.00;91.90;;;;;;5030715;28;20461;-71
2023/06/20 07:44:44;;;;;;;7.60;6.90;;;25.10;92.20;;;;;;5030089;28;20540;-71
2023/06/20 07:47:13;;;;;;;7.33;6.53;;;25.30;92.50;;;;;;5030591;28;20974;-71
2023/06/20 07:49:42;;;;;;;7.47;6.60;;;25.30;90.90;;;;;;5031111;28;20457;-71
2023/06/20 07:52:10;;;;;;;6.83;6.23;;;25.40;90.10;;;;;;5030401;28;20465;-70
2023/06/20 07:54:38;;;;;;;8.00;7.30;;;25.50;90.60;;;;;;5029739;28;20508;-71
2023/06/20 07:57:07;;;;;;;6.47;5.87;;;25.50;90.90;;;;;;5030259;28;20449;-71
2023/06/20 07:59:36;;;;;;;6.60;6.00;;;25.40;89.70;;;;;;5030762;28;20471;-71
2023/06/20 08:02:05;;;;;;;9.70;6.60;;;25.50;86.10;;;;;;5030047;28;20858;-71
2023/06/20 08:04:33;;;;;;;6.80;6.03;;;25.70;87.20;;;;;;5029821;28;20437;-70
2023/06/20 08:07:01;;;;;;;7.90;7.10;;;25.90;87.50;;;;;;5030410;28;20437;-70
2023/06/20 08:09:29;;;;;;;7.50;6.80;;;26.20;84.80;;;;;;5030523;28;21311;-70
2023/06/20 08:11:57;;;;;;;7.97;7.10;;;26.40;84.20;;;;;;5030271;28;20460;-71
2023/06/20 08:14:26;;;;;;;7.23;6.50;;;26.70;83.80;;;;;;5029557;28;20492;-71
2023/06/20 08:16:55;;;;;;;6.50;5.90;;;26.70;81.60;;;;;;5030849;28;20460;-71
2023/06/20 08:19:23;;;;;;;6.97;6.37;;;26.90;81.40;;;;;;5031020;28;20444;-70
2023/06/20 08:21:51;;;;;;;7.83;7.07;;;27.00;81.60;;;;;;5030709;28;20472;-71
2023/06/20 08:24:19;;;;;;;7.50;6.80;;;27.20;76.40;;;;;;5029394;28;20449;-71
2023/06/20 08:26:48;;;;;;;7.50;6.90;;;27.20;76.70;;;;;;5030566;28;20444;-71
2023/06/20 08:29:16;;;;;;;7.40;6.80;;;27.30;77.00;;;;;;5030614;28;20448;-71
2023/06/20 08:31:46;;;;;;;8.03;7.33;;;27.20;76.20;;;;;;5030325;28;20507;-71
2023/06/20 08:34:16;;;;;;;7.80;6.97;;;27.30;75.20;;;;;;5029497;28;20479;-71
2023/06/20 08:36:44;;;;;;;7.30;6.70;;;27.40;77.00;;;;;;5030791;28;20452;-71
2023/06/20 08:39:12;;;;;;;7.67;6.97;;;27.40;73.10;;;;;;5030346;28;20437;-72
2023/06/20 08:41:40;;;;;;;8.17;7.37;;;27.30;75.40;;;;;;5029999;28;20457;-71
2023/06/20 08:44:09;;;;;;;7.83;7.20;;;27.20;73.90;;;;;;5029436;28;20456;-70
2023/06/20 08:46:39;;;;;;;7.70;7.00;;;26.90;71.40;;;;;;5027937;28;20452;-71
2023/06/20 08:49:07;;;;;;;8.10;7.40;;;26.70;76.10;;;;;;5029234;28;21026;-70
2023/06/20 08:51:39;;;;;;;8.27;7.47;;;26.80;77.10;;;;;;5043974;28;20548;-70
2023/06/20 08:54:13;;;;;;;7.43;6.73;;;26.90;74.80;;;;;;5039526;28;20480;-70
2023/06/20 08:56:42;;;;;;;8.80;7.20;;;27.00;76.10;;;;;;5034500;28;20452;-70
2023/06/20 08:59:10;;;;;;;9.13;7.27;;;27.20;76.30;;;;;;5049049;28;20455;-70
2023/06/20 09:01:38;;;;;;;7.80;7.00;;;27.50;76.10;;;;;;5039080;28;20558;-70
2023/06/20 09:04:11;;;;;;;8.27;7.43;;;27.70;72.90;;;;;;5040012;28;20441;-70
2023/06/20 09:06:41;;;;;;;8.00;7.30;;;27.90;73.40;;;;;;5047839;28;20472;-71
2023/06/20 09:09:16;;;;;;;7.93;7.33;;;28.00;74.90;;;;;;5035669;28;21007;-70
2023/06/20 09:11:49;;;;;;;7.50;6.90;;;28.20;71.50;;;;;;5044246;28;20805;-70
2023/06/20 09:14:17;;;;;;;7.50;6.77;;;28.40;69.20;;;;;;5035607;28;20511;-70
2023/06/20 09:16:48;;;;;;;9.40;8.37;;;28.50;70.10;;;;;;5043855;28;20440;-70
2023/06/20 09:19:17;;;;;;;8.33;7.40;;;28.60;69.30;;;;;;5036145;28;21266;-70
2023/06/20 09:21:46;;;;;;;8.00;7.30;;;28.80;68.80;;;;;;5044524;28;20929;-70
2023/06/20 09:24:30;;;;;;;7.07;6.50;;;28.80;67.00;;;;;;5046170;28;20436;-71
2023/06/20 09:27:03;;;;;;;7.00;6.40;;;29.00;66.90;;;;;;5035898;28;20464;-71
2023/06/20 09:29:31;;;;;;;8.50;7.77;;;29.00;63.90;;;;;;5047103;28;20429;-71
2023/06/20 09:31:59;;;;;;;8.20;7.10;;;29.00;61.50;;;;;;5042188;28;20473;-70
2023/06/20 09:34:31;;;;;;;8.57;7.70;;;28.90;61.90;;;;;;5038097;28;20481;-69
2023/06/20 09:37:01;;;;;;;9.77;7.43;;;28.70;61.40;;;;;;5049411;28;20485;-70
2023/06/20 09:39:32;;;;;;;8.77;7.57;;;28.90;66.50;;;;;;5037888;28;20862;-69
2023/06/20 09:42:00;;;;;;;9.00;8.20;;;29.00;64.30;;;;;;5042733;28;20460;-71
2023/06/20 09:44:28;;;;;;;7.60;7.00;;;29.30;62.30;;;;;;5041257;28;20432;-71
2023/06/20 09:46:56;;;;;;;8.50;7.70;;;29.50;60.00;;;;;;5033741;28;20468;-70
2023/06/20 09:49:25;;;;;;;7.40;6.80;;;29.60;59.60;;;;;;5031465;28;20467;-71
2023/06/20 09:51:59;;;;;;;7.73;7.13;;;29.90;64.30;;;;;;5035354;28;20472;-70
2023/06/20 09:54:36;;;;;;;7.47;6.87;;;30.00;58.20;;;;;;5039546;28;20571;-70
2023/06/20 09:57:08;;;;;;;7.57;6.97;;;30.10;58.00;;;;;;5045546;28;20428;-70
2023/06/20 09:59:38;;;;;;;8.30;7.60;;;30.30;56.40;;;;;;5035801;28;20520;-70
2023/06/20 10:02:08;;;;;;;7.00;6.30;;;30.50;54.80;;;;;;5046942;28;20832;-70
2023/06/20 10:04:42;;;;;;;7.37;6.77;;;30.90;55.70;;;;;;5041178;28;20474;-70
2023/06/20 10:07:14;;;;;;;7.33;6.60;;;31.30;53.40;;;;;;5038046;28;20444;-71
2023/06/20 10:09:45;;;;;;;7.30;6.50;;;32.20;51.30;;;;;;5038003;28;20437;-71
2023/06/20 10:12:14;;;;;;;8.67;7.30;;;32.80;50.20;;;;;;5045146;28;20465;-71
2023/06/20 10:14:42;;;;;;;7.40;6.70;;;33.20;49.60;;;;;;5041214;28;20515;-71
2023/06/20 10:17:11;;;;;;;7.17;6.47;;;33.70;48.70;;;;;;5037736;28;20445;-71
2023/06/20 10:19:51;;;;;;;7.00;5.60;;;34.30;45.90;;;;;;5047867;28;20540;-69
2023/06/20 10:22:33;;;;;;;6.90;6.17;;;34.50;42.40;;;;;;5037515;28;20468;-70
2023/06/20 10:25:11;;;;;;;6.97;6.17;;;33.90;42.30;;;;;;5050826;28;20444;-70
2023/06/20 10:27:41;;;;;;;6.87;6.20;;;34.10;44.10;;;;;;5052108;28;20432;-72
2023/06/20 10:30:12;;;;;;;6.93;6.33;;;34.30;44.80;;;;;;5051958;28;20440;-71
2023/06/20 10:33:11;;;;;;;6.70;6.20;;;34.60;43.60;;;;;;5049255;28;20479;-71
2023/06/20 10:35:48;;;;;;;7.07;6.47;;;34.90;43.70;;;;;;5055744;28;20468;-71
2023/06/20 10:38:17;;;;;;;6.60;5.90;;;35.40;41.20;;;;;;5051849;28;20447;-71
2023/06/20 10:40:46;;;;;;;5.90;5.40;;;35.70;41.80;;;;;;5051618;28;20462;-71
2023/06/20 10:43:17;;;;;;;6.67;6.17;;;36.10;39.00;;;;;;5050407;28;20526;-71
2023/06/20 10:45:53;;;;;;;6.53;6.03;;;35.90;38.20;;;;;;5051468;28;20440;-72
2023/06/20 10:48:21;;;;;;;9.27;8.37;;;34.90;39.30;;;;;;5051669;28;20497;-72
2023/06/20 10:50:49;;;;;;;6.57;6.00;;;34.60;40.60;;;;;;5051549;28;20502;-72
2023/06/20 10:53:18;;;;;;;6.63;6.07;;;34.30;39.40;;;;;;5049938;28;20655;-72
2023/06/20 10:55:47;;;;;;;7.17;6.43;;;34.10;38.90;;;;;;5051295;28;20480;-72
2023/06/20 10:58:17;;;;;;;7.50;6.70;;;34.40;39.10;;;;;;5051257;28;20539;-72
2023/06/20 11:00:59;;;;;;;7.80;7.20;;;34.70;40.10;;;;;;5051418;28;20531;-72
2023/06/20 11:03:29;;;;;;;7.10;6.47;;;34.30;39.50;;;;;;5049585;28;20526;-72
2023/06/20 11:05:59;;;;;;;6.67;6.03;;;34.20;39.20;;;;;;5051485;28;20539;-72
2023/06/20 11:08:28;;;;;;;9.10;6.07;;;34.40;39.70;;;;;;5051031;28;20437;-72
2023/06/20 11:10:57;;;;;;;6.93;6.23;;;34.80;39.20;;;;;;5051432;28;20478;-71
2023/06/20 11:13:25;;;;;;;8.10;5.93;;;34.50;38.90;;;;;;5049697;28;20429;-72
2023/06/20 11:15:53;;;;;;;6.43;5.80;;;34.60;38.00;;;;;;5051138;28;20885;-71
2023/06/20 11:18:21;;;;;;;8.67;6.50;;;34.80;39.10;;;;;;5050786;28;20497;-72
2023/06/20 11:20:50;;;;;;;6.63;6.03;;;35.20;37.30;;;;;;5050881;28;20444;-73
2023/06/20 11:23:18;;;;;;;6.43;5.90;;;35.70;41.80;;;;;;5049637;28;20454;-73
2023/06/20 11:25:46;;;;;;;9.80;6.20;;;36.40;36.40;;;;;;5051082;28;20452;-72
2023/06/20 11:28:16;;;;;;;6.50;5.90;;;37.00;36.30;;;;;;5051188;28;20440;-72
2023/06/20 11:30:46;;;;;;;6.27;5.77;;;37.10;34.30;;;;;;5051012;28;20497;-72
2023/06/20 11:33:16;;;;;;;6.73;6.10;;;36.20;34.50;;;;;;5050414;28;20463;-71
2023/06/20 11:35:46;;;;;;;6.13;5.53;;;36.30;36.20;;;;;;5051134;28;20716;-72
2023/06/20 11:38:16;;;;;;;6.23;5.73;;;36.80;35.80;;;;;;5036107;28;20882;-72
2023/06/20 11:40:45;;;;;;;7.43;6.73;;;37.20;34.20;;;;;;5029820;28;20441;-72
2023/06/20 11:43:26;;;;;;;6.53;5.80;;;37.80;34.20;;;;;;5028553;28;20469;-72
2023/06/20 11:45:59;;;;;;;7.03;6.20;;;38.40;35.70;;;;;;5030113;28;20437;-72
2023/06/20 11:48:28;;;;;;;7.07;5.90;;;38.90;32.40;;;;;;5029497;28;20452;-72
2023/06/20 11:50:58;;;;;;;6.80;6.07;;;38.80;33.70;;;;;;5029665;28;20544;-72
2023/06/20 11:53:29;;;;;;;6.97;6.07;;;39.00;33.20;;;;;;5029707;28;20490;-72
2023/06/20 11:55:59;;;;;;;6.73;6.03;;;39.20;32.80;;;;;;5031171;28;20502;-73
2023/06/20 11:58:38;;;;;;;6.80;6.20;;;39.70;30.90;;;;;;5031514;28;20445;-73
2023/06/20 12:01:10;;;;;;;6.83;5.70;;;39.40;30.70;;;;;;5030921;28;20927;-73
2023/06/20 12:03:41;;;;;;;8.33;6.27;;;39.30;32.90;;;;;;5029706;28;20523;-72
2023/06/20 12:06:29;;;;;;;6.60;6.00;;;38.80;31.20;;;;;;5030404;28;20821;-72
2023/06/20 12:08:58;;;;;;;6.90;5.93;;;38.50;30.70;;;;;;5029842;28;20444;-73
2023/06/20 12:11:27;;;;;;;7.80;6.20;;;37.90;32.50;;;;;;5030555;28;20491;-73
2023/06/20 12:13:56;;;;;;;7.53;6.90;;;37.80;33.70;;;;;;5029251;28;20480;-72
2023/06/20 12:16:25;;;;;;;6.83;6.17;;;38.10;37.20;;;;;;5030348;28;20477;-73
2023/06/20 12:18:56;;;;;;;7.80;6.17;;;38.50;31.90;;;;;;5030118;28;20437;-72
2023/06/20 12:21:24;;;;;;;7.97;7.20;;;38.50;32.40;;;;;;5029803;28;20530;-73
2023/06/20 12:23:52;;;;;;;6.90;6.40;;;39.00;33.50;;;;;;5028748;28;20444;-72
2023/06/20 12:26:20;;;;;;;6.97;6.27;;;39.00;30.30;;;;;;5030139;28;20524;-72
2023/06/20 12:28:48;;;;;;;6.73;6.13;;;38.00;30.60;;;;;;5030101;28;21001;-72
2023/06/20 12:31:18;;;;;;;7.83;7.03;;;37.50;32.30;;;;;;5029845;28;20522;-72
2023/06/20 12:33:46;;;;;;;7.70;6.40;;;38.00;32.90;;;;;;5028570;28;20460;-72
2023/06/20 12:36:15;;;;;;;9.10;6.60;;;38.70;31.30;;;;;;5029807;28;20998;-73
2023/06/20 12:38:43;;;;;;;7.13;6.30;;;39.00;32.00;;;;;;5030279;28;20469;-73
2023/06/20 12:41:12;;;;;;;8.20;7.20;;;39.70;29.80;;;;;;5029870;28;20543;-72
2023/06/20 12:43:41;;;;;;;7.27;6.67;;;40.50;30.80;;;;;;5041376;28;20482;-72
2023/06/20 12:46:10;;;;;;;7.63;6.33;;;41.20;31.80;;;;;;5049804;28;20447;-72
2023/06/20 12:48:40;;;;;;;7.13;6.50;;;41.30;27.30;;;;;;5049369;28;20443;-72
2023/06/20 12:51:07;;;;;;;6.83;5.93;;;41.00;29.40;;;;;;5049723;28;20530;-72
2023/06/20 12:53:36;;;;;;;6.23;5.53;;;41.40;32.10;;;;;;5048312;28;20945;-72
2023/06/20 12:56:05;;;;;;;7.80;6.17;;;41.70;29.60;;;;;;5049552;28;20498;-71